createdAt,value
2022-10-03T00:01:00.599Z,11.10
2022-10-03T00:03:39.330Z,11.00
2022-10-03T00:06:26.297Z,10.90
2022-10-03T00:09:20.768Z,10.90
2022-10-03T00:12:05.845Z,10.90
2022-10-03T00:14:56.824Z,10.90
2022-10-03T00:18:03.633Z,10.90
2022-10-03T00:20:39.238Z,10.90
2022-10-03T00:23:28.935Z,10.80
2022-10-03T00:26:25.540Z,10.70
2022-10-03T00:29:16.723Z,10.70
2022-10-03T00:31:51.357Z,10.70
2022-10-03T00:34:33.924Z,10.80
2022-10-03T00:37:24.504Z,10.70
2022-10-03T00:39:53.959Z,10.80
2022-10-03T00:42:52.012Z,10.80
2022-10-03T00:45:55.664Z,10.80
2022-10-03T00:48:44.962Z,10.70
2022-10-03T00:51:17.793Z,10.70
2022-10-03T00:54:07.063Z,10.60
2022-10-03T00:56:58.092Z,10.60
2022-10-03T00:59:47.903Z,10.50
2022-10-03T01:02:25.597Z,10.50
2022-10-03T01:05:23.911Z,10.50
2022-10-03T01:08:18.461Z,10.50
2022-10-03T01:11:09.094Z,10.40
2022-10-03T01:13:51.015Z,10.40
2022-10-03T01:16:55.342Z,10.40
2022-10-03T01:20:03.852Z,10.40
2022-10-03T01:22:56.444Z,10.40
2022-10-03T01:25:25.944Z,10.40
2022-10-03T01:28:55.049Z,10.30
2022-10-03T01:31:44.689Z,10.30
2022-10-03T01:34:27.697Z,10.30
2022-10-03T01:37:14.047Z,10.30
2022-10-03T01:40:18.506Z,10.30
2022-10-03T01:42:51.374Z,10.30
2022-10-03T01:45:35.660Z,10.20
2022-10-03T01:48:13.365Z,10.20
2022-10-03T01:51:21.532Z,10.20
2022-10-03T01:53:57.167Z,10.20
2022-10-03T01:56:45.624Z,10.10
2022-10-03T01:59:41.227Z,10.10
2022-10-03T02:02:33.116Z,10.10
2022-10-03T02:05:09.794Z,10.10
2022-10-03T02:07:45.567Z,10.00
2022-10-03T02:10:19.504Z,10.00
2022-10-03T02:12:58.996Z,10.00
2022-10-03T02:15:41.199Z,10.00
2022-10-03T02:18:23.688Z,10.00
2022-10-03T02:21:14.093Z,9.90
2022-10-03T02:23:45.258Z,10.00
2022-10-03T02:26:21.096Z,9.90
2022-10-03T02:29:25.243Z,9.90
2022-10-03T02:32:29.772Z,9.90
2022-10-03T02:35:10.396Z,10.00
2022-10-03T02:38:14.585Z,9.90
2022-10-03T02:41:19.017Z,9.90
2022-10-03T02:44:10.437Z,9.90
2022-10-03T02:46:49.039Z,9.90
2022-10-03T02:49:47.943Z,9.90
2022-10-03T02:53:00.530Z,9.90
2022-10-03T02:55:48.421Z,9.80
2022-10-03T02:58:33.438Z,9.80
2022-10-03T03:01:46.960Z,9.80
2022-10-03T03:04:37.410Z,9.80
2022-10-03T03:07:16.069Z,9.80
2022-10-03T03:10:07.869Z,9.80
2022-10-03T03:13:26.232Z,9.80
2022-10-03T03:16:32.703Z,9.80
2022-10-03T03:18:59.487Z,9.80
2022-10-03T03:21:49.699Z,9.80
2022-10-03T03:24:26.766Z,9.80
2022-10-03T03:27:18.439Z,9.80
2022-10-03T03:29:48.289Z,9.80
2022-10-03T03:32:33.690Z,9.80
2022-10-03T03:35:23.080Z,9.90
2022-10-03T03:38:27.100Z,9.90
2022-10-03T03:40:59.769Z,9.90
2022-10-03T03:43:47.739Z,9.90
2022-10-03T03:46:30.534Z,9.80
2022-10-03T03:49:06.637Z,9.80
2022-10-03T03:51:50.201Z,9.80
2022-10-03T03:54:49.227Z,9.80
2022-10-03T03:57:44.053Z,9.80
2022-10-03T04:00:31.407Z,9.80
2022-10-03T04:03:06.903Z,9.80
2022-10-03T04:05:52.164Z,9.80
2022-10-03T04:08:41.540Z,9.80
2022-10-03T04:11:28.491Z,9.80
2022-10-03T04:14:13.743Z,9.80
2022-10-03T04:17:15.287Z,9.80
2022-10-03T04:19:59.653Z,9.80
2022-10-03T04:22:28.173Z,9.80
2022-10-03T04:25:32.007Z,9.80
2022-10-03T04:28:26.810Z,9.70
2022-10-03T04:31:18.196Z,9.70
2022-10-03T04:33:48.123Z,9.60
2022-10-03T04:37:01.606Z,9.60
2022-10-03T04:39:37.620Z,9.60
2022-10-03T04:42:19.318Z,9.60
2022-10-03T04:45:18.260Z,9.60
2022-10-03T04:47:51.472Z,9.60
2022-10-03T04:50:36.294Z,9.70
2022-10-03T04:53:05.863Z,9.70
2022-10-03T04:56:06.669Z,9.80
2022-10-03T04:59:01.196Z,9.90
2022-10-03T05:01:40.074Z,9.90
2022-10-03T05:04:12.552Z,9.90
2022-10-03T05:07:11.131Z,10.00
2022-10-03T05:10:11.459Z,10.00
2022-10-03T05:12:56.870Z,10.00
2022-10-03T05:15:42.172Z,9.90
2022-10-03T05:18:37.697Z,9.90
2022-10-03T05:21:16.525Z,9.90
2022-10-03T05:24:09.867Z,9.80
2022-10-03T05:26:48.623Z,9.80
2022-10-03T05:29:25.085Z,9.70
2022-10-03T05:32:08.514Z,9.70
2022-10-03T05:34:56.865Z,9.70
2022-10-03T05:37:26.408Z,9.60
2022-10-03T05:40:01.565Z,9.60
2022-10-03T05:42:37.287Z,9.60
2022-10-03T05:45:35.941Z,9.60
2022-10-03T05:48:14.584Z,9.60
2022-10-03T05:51:01.462Z,9.60
2022-10-03T05:53:31.347Z,9.60
2022-10-03T05:56:19.800Z,9.60
2022-10-03T05:59:05.297Z,9.60
2022-10-03T06:01:32.038Z,9.60
2022-10-03T06:04:07.690Z,9.60
2022-10-03T06:06:55.142Z,9.70
2022-10-03T06:09:40.846Z,9.80
2022-10-03T06:12:19.873Z,9.90
2022-10-03T06:15:10.588Z,10.00
2022-10-03T06:17:55.377Z,10.10
2022-10-03T06:20:59.756Z,10.20
2022-10-03T06:23:45.369Z,10.30
2022-10-03T06:26:36.155Z,10.30
2022-10-03T06:29:33.274Z,10.30
2022-10-03T06:32:36.635Z,10.40
2022-10-03T06:35:31.168Z,10.50
2022-10-03T06:38:06.874Z,10.60
2022-10-03T06:40:47.467Z,10.80
2022-10-03T06:43:32.186Z,10.80
2022-10-03T06:46:17.097Z,10.90
2022-10-03T06:48:46.801Z,11.00
2022-10-03T06:51:30.474Z,11.10
2022-10-03T06:54:09.520Z,11.20
2022-10-03T06:57:15.198Z,11.20
2022-10-03T06:59:53.857Z,11.30
2022-10-03T07:02:44.226Z,11.30
2022-10-03T07:05:39.857Z,11.20
2022-10-03T07:08:49.669Z,11.30
2022-10-03T07:11:40.309Z,11.30
2022-10-03T07:14:16.813Z,11.40
2022-10-03T07:17:00.580Z,11.40
2022-10-03T07:19:39.214Z,11.50
2022-10-03T07:22:31.830Z,11.50
2022-10-03T07:25:01.614Z,11.50
2022-10-03T07:27:40.409Z,11.60
2022-10-03T07:30:21.710Z,11.60
2022-10-03T07:33:21.393Z,11.60
2022-10-03T07:36:38.088Z,11.70
2022-10-03T07:39:18.999Z,11.80
2022-10-03T07:42:26.999Z,11.80
2022-10-03T07:45:30.271Z,11.90
2022-10-03T07:48:18.540Z,12.00
2022-10-03T07:51:06.374Z,12.10
2022-10-03T07:53:54.415Z,12.20
2022-10-03T07:56:48.342Z,12.30
2022-10-03T07:59:59.855Z,12.40
2022-10-03T08:02:47.950Z,12.50
2022-10-03T08:05:25.242Z,12.60
2022-10-03T08:08:22.323Z,12.70
2022-10-03T08:11:08.602Z,12.80
2022-10-03T08:14:26.854Z,12.90
2022-10-03T08:17:14.760Z,12.90
2022-10-03T08:20:10.129Z,13.00
2022-10-03T08:22:54.003Z,13.20
2022-10-03T08:25:27.220Z,13.30
2022-10-03T08:28:17.687Z,13.40
2022-10-03T08:31:13.301Z,13.50
2022-10-03T08:33:53.778Z,13.50
2022-10-03T08:36:37.832Z,13.70
2022-10-03T08:39:10.571Z,13.90
2022-10-03T08:42:05.419Z,14.20
2022-10-03T08:44:53.444Z,14.50
2022-10-03T08:47:38.481Z,14.80
2022-10-03T08:50:17.183Z,15.00
2022-10-03T08:53:05.529Z,15.20
2022-10-03T08:55:45.554Z,15.20
2022-10-03T08:58:24.434Z,15.20
2022-10-03T09:01:16.063Z,15.30
2022-10-03T09:04:19.771Z,15.30
2022-10-03T09:07:20.838Z,15.50
2022-10-03T09:09:50.703Z,15.70
2022-10-03T09:12:52.812Z,15.80
2022-10-03T09:15:41.319Z,15.90
2022-10-03T09:18:34.892Z,15.90
2022-10-03T09:21:36.936Z,15.90
2022-10-03T09:24:18.561Z,15.70
2022-10-03T09:26:57.751Z,15.60
2022-10-03T09:29:39.604Z,15.20
2022-10-03T09:32:31.063Z,15.10
2022-10-03T09:35:18.923Z,14.90
2022-10-03T09:38:34.691Z,14.80
2022-10-03T09:41:20.089Z,14.90
2022-10-03T09:44:07.912Z,14.90
2022-10-03T09:47:08.761Z,14.90
2022-10-03T09:50:01.756Z,14.90
2022-10-03T09:52:40.362Z,15.00
2022-10-03T09:55:34.205Z,15.10
2022-10-03T09:58:11.726Z,15.10
2022-10-03T10:00:57.476Z,15.10
2022-10-03T10:03:27.218Z,15.00
2022-10-03T10:06:14.826Z,14.90
2022-10-03T10:09:33.801Z,14.90
2022-10-03T10:12:23.212Z,14.70
2022-10-03T10:15:20.995Z,14.80
2022-10-03T10:17:59.669Z,14.90
2022-10-03T10:20:45.465Z,15.10
2022-10-03T10:23:33.911Z,15.20
2022-10-03T10:26:19.168Z,15.20
2022-10-03T10:29:25.726Z,15.30
2022-10-03T10:32:29.854Z,15.40
2022-10-03T10:35:36.570Z,15.50
2022-10-03T10:38:12.534Z,15.50
2022-10-03T10:40:55.404Z,15.70
2022-10-03T10:43:59.642Z,16.10
2022-10-03T10:47:04.085Z,16.30
2022-10-03T10:49:30.891Z,16.60
2022-10-03T10:52:14.003Z,16.80
2022-10-03T10:55:12.514Z,16.80
2022-10-03T10:58:16.897Z,16.80
2022-10-03T11:01:17.799Z,16.90
2022-10-03T11:04:03.799Z,16.90
2022-10-03T11:06:54.555Z,17.00
2022-10-03T11:09:42.651Z,16.80
2022-10-03T11:12:27.342Z,16.70
2022-10-03T11:15:36.131Z,16.60
2022-10-03T11:18:29.822Z,16.50
2022-10-03T11:21:34.077Z,16.30
2022-10-03T11:24:22.369Z,16.30
2022-10-03T11:27:18.234Z,16.30
2022-10-03T11:30:03.335Z,16.30
2022-10-03T11:33:05.368Z,16.50
2022-10-03T11:35:50.820Z,16.70
2022-10-03T11:38:26.758Z,16.90
2022-10-03T11:41:16.646Z,17.00
2022-10-03T11:44:04.314Z,17.10
2022-10-03T11:46:59.254Z,17.20
2022-10-03T11:49:45.037Z,17.20
2022-10-03T11:52:29.902Z,17.20
2022-10-03T11:55:26.554Z,17.30
2022-10-03T11:58:19.401Z,17.30
2022-10-03T12:00:48.143Z,17.40
2022-10-03T12:03:35.912Z,17.40
2022-10-03T12:06:33.914Z,17.40
2022-10-03T12:09:03.426Z,17.30
2022-10-03T12:11:42.787Z,17.40
2022-10-03T12:14:11.622Z,17.20
2022-10-03T12:17:08.496Z,17.20
2022-10-03T12:20:02.827Z,17.10
2022-10-03T12:22:53.223Z,17.20
2022-10-03T12:25:27.640Z,17.20
2022-10-03T12:28:01.558Z,17.30
2022-10-03T12:30:39.358Z,17.30
2022-10-03T12:33:08.866Z,17.30
2022-10-03T12:35:35.651Z,17.30
2022-10-03T12:38:29.719Z,17.40
2022-10-03T12:41:19.446Z,17.50
2022-10-03T12:44:17.561Z,17.60
2022-10-03T12:47:37.648Z,17.60
2022-10-03T12:50:15.126Z,17.50
2022-10-03T12:53:00.834Z,17.40
2022-10-03T12:55:33.747Z,17.30
2022-10-03T12:58:22.136Z,17.10
2022-10-03T13:01:03.184Z,17.10
2022-10-03T13:03:32.697Z,17.20
2022-10-03T13:07:01.919Z,17.30
2022-10-03T13:09:42.265Z,17.40
2022-10-03T13:12:31.325Z,17.60
2022-10-03T13:15:19.682Z,17.70
2022-10-03T13:17:52.697Z,17.90
2022-10-03T13:20:42.421Z,17.80
2022-10-03T13:23:31.024Z,17.80
2022-10-03T13:26:26.993Z,17.70
2022-10-03T13:29:35.043Z,17.80
2022-10-03T13:32:19.347Z,18.00
2022-10-03T13:35:45.481Z,18.30
2022-10-03T13:38:18.579Z,18.20
2022-10-03T13:40:57.352Z,18.30
2022-10-03T13:43:35.771Z,18.00
2022-10-03T13:46:16.659Z,17.90
2022-10-03T13:48:52.124Z,17.90
2022-10-03T13:51:39.797Z,17.90
2022-10-03T13:54:21.104Z,18.00
2022-10-03T13:57:18.791Z,17.90
2022-10-03T14:00:11.340Z,17.80
2022-10-03T14:02:53.556Z,17.60
2022-10-03T14:05:48.803Z,17.50
2022-10-03T14:08:55.598Z,17.50
2022-10-03T14:11:32.719Z,17.40
2022-10-03T14:13:59.646Z,17.20
2022-10-03T14:16:34.642Z,17.10
2022-10-03T14:19:16.804Z,17.10
2022-10-03T14:22:16.169Z,17.00
2022-10-03T14:24:57.729Z,17.00
2022-10-03T14:27:47.106Z,17.00
2022-10-03T14:30:31.286Z,17.00
2022-10-03T14:33:17.043Z,17.00
2022-10-03T14:36:04.959Z,17.00
2022-10-03T14:39:00.511Z,17.00
2022-10-03T14:41:41.571Z,16.90
2022-10-03T14:44:13.871Z,16.80
2022-10-03T14:46:57.401Z,16.70
2022-10-03T14:52:42.088Z,16.50
2022-10-03T14:55:22.854Z,16.30
2022-10-03T14:58:11.795Z,16.20
2022-10-03T15:00:43.471Z,16.10
2022-10-03T15:03:33.746Z,16.00
2022-10-03T15:06:02.392Z,16.00
2022-10-03T15:08:39.625Z,15.90
2022-10-03T15:11:07.765Z,16.00
2022-10-03T15:13:42.611Z,16.00
2022-10-03T15:16:13.955Z,16.00
2022-10-03T15:18:45.622Z,16.00
2022-10-03T15:21:16.110Z,16.00
2022-10-03T15:23:45.551Z,16.00
2022-10-03T15:26:20.750Z,16.00
2022-10-03T15:28:59.729Z,16.00
2022-10-03T15:31:45.692Z,16.00
2022-10-03T15:34:38.539Z,16.00
2022-10-03T15:37:18.342Z,16.00
2022-10-03T15:39:48.078Z,16.10
2022-10-03T15:42:23.504Z,16.00
2022-10-03T15:44:54.539Z,16.00
2022-10-03T15:47:29.692Z,16.10
2022-10-03T15:50:27.802Z,16.10
2022-10-03T15:53:24.059Z,16.10
2022-10-03T15:55:53.540Z,16.00
2022-10-03T15:58:29.473Z,16.00
2022-10-03T16:01:05.262Z,16.00
2022-10-03T16:03:42.684Z,16.00
2022-10-03T16:06:16.244Z,16.00
2022-10-03T16:08:57.832Z,15.90
2022-10-03T16:11:42.419Z,15.90
2022-10-03T16:14:42.767Z,15.90
2022-10-03T16:17:22.769Z,15.80
2022-10-03T16:20:04.295Z,15.80
2022-10-03T16:22:47.082Z,15.80
2022-10-03T16:25:21.677Z,15.70
2022-10-03T16:28:11.062Z,15.70
2022-10-03T16:31:01.115Z,15.70
2022-10-03T16:33:34.813Z,15.60
2022-10-03T16:36:04.998Z,15.60
2022-10-03T16:38:39.108Z,15.60
2022-10-03T16:41:26.518Z,15.50
2022-10-03T16:44:02.532Z,15.50
2022-10-03T16:46:35.393Z,15.50
2022-10-03T16:49:28.205Z,15.40
2022-10-03T16:51:59.232Z,15.40
2022-10-03T16:54:27.956Z,15.40
2022-10-03T16:57:00.694Z,15.30
2022-10-03T16:59:30.395Z,15.30
2022-10-03T17:02:28.562Z,15.30
2022-10-03T17:05:04.295Z,15.20
2022-10-03T17:08:30.045Z,15.10
2022-10-03T17:10:58.264Z,15.10
2022-10-03T17:13:44.373Z,15.10
2022-10-03T17:16:34.013Z,15.10
2022-10-03T17:19:19.292Z,15.10
2022-10-03T17:21:55.778Z,15.00
2022-10-03T17:24:43.562Z,15.00
2022-10-03T17:27:20.546Z,15.00
2022-10-03T17:29:56.534Z,15.00
2022-10-03T17:32:35.468Z,15.00
2022-10-03T17:35:22.481Z,15.00
2022-10-03T17:38:30.498Z,15.00
2022-10-03T17:41:18.964Z,14.90
2022-10-03T17:43:50.014Z,14.90
2022-10-03T17:46:16.848Z,14.90
2022-10-03T17:49:07.746Z,14.80
2022-10-03T17:51:44.730Z,14.80
2022-10-03T17:54:29.497Z,14.80
2022-10-03T17:57:24.127Z,14.80
2022-10-03T18:00:09.178Z,14.70
2022-10-03T18:02:49.729Z,14.70
2022-10-03T18:05:24.906Z,14.60
2022-10-03T18:07:54.199Z,14.60
2022-10-03T18:10:46.548Z,14.50
2022-10-03T18:13:28.805Z,14.50
2022-10-03T18:16:24.839Z,14.50
2022-10-03T18:19:22.326Z,14.40
2022-10-03T18:22:10.740Z,14.40
2022-10-03T18:25:25.719Z,14.30
2022-10-03T18:28:16.054Z,14.20
2022-10-03T18:30:58.888Z,14.10
2022-10-03T18:33:46.577Z,14.10
2022-10-03T18:36:17.486Z,14.10
2022-10-03T18:38:45.745Z,14.10
2022-10-03T18:41:17.597Z,14.10
2022-10-03T18:43:58.683Z,14.10
2022-10-03T18:46:42.130Z,14.10
2022-10-03T18:49:33.519Z,14.10
2022-10-03T18:52:37.347Z,14.20
2022-10-03T18:55:15.523Z,14.20
2022-10-03T18:58:16.584Z,14.20
2022-10-03T19:01:18.271Z,14.20
2022-10-03T19:03:59.075Z,14.20
2022-10-03T19:06:34.387Z,14.20
2022-10-03T19:09:35.169Z,14.20
2022-10-03T19:12:07.912Z,14.20
2022-10-03T19:14:51.818Z,14.20
2022-10-03T19:17:36.338Z,14.20
2022-10-03T19:20:23.729Z,14.10
2022-10-03T19:23:08.735Z,14.00
2022-10-03T19:25:39.177Z,14.00
2022-10-03T19:28:13.477Z,13.90
2022-10-03T19:30:41.914Z,13.80
2022-10-03T19:33:22.854Z,13.80
2022-10-03T19:35:52.839Z,13.70
2022-10-03T19:38:32.598Z,13.70
2022-10-03T19:41:04.848Z,13.60
2022-10-03T19:43:35.567Z,13.50
2022-10-03T19:46:27.448Z,13.40
2022-10-03T19:49:32.094Z,13.30
2022-10-03T19:52:25.736Z,13.20
2022-10-03T19:55:24.171Z,13.10
2022-10-03T19:57:58.759Z,13.10
2022-10-03T20:00:32.794Z,13.00
2022-10-03T20:03:06.411Z,13.00
2022-10-03T20:05:41.627Z,13.00
2022-10-03T20:08:23.065Z,13.00
2022-10-03T20:10:55.541Z,13.00
2022-10-03T20:13:22.204Z,13.00
2022-10-03T20:15:51.851Z,13.00
2022-10-03T20:18:25.209Z,12.90
2022-10-03T20:20:55.423Z,12.80
2022-10-03T20:23:25.952Z,12.80
2022-10-03T20:26:03.314Z,12.70
2022-10-03T20:28:45.976Z,12.60
2022-10-03T20:31:22.512Z,12.50
2022-10-03T20:33:52.099Z,12.40
2022-10-03T20:37:03.495Z,12.40
2022-10-03T20:39:36.494Z,12.20
2022-10-03T20:42:17.861Z,12.20
2022-10-03T20:44:55.491Z,12.10
2022-10-03T20:47:47.137Z,12.10
2022-10-03T20:50:28.251Z,12.00
2022-10-03T20:53:02.195Z,12.00
2022-10-03T20:55:44.747Z,11.90
2022-10-03T20:58:35.170Z,11.90
2022-10-03T21:01:25.262Z,11.90
2022-10-03T21:04:13.224Z,11.90
2022-10-03T21:06:54.657Z,11.80
2022-10-03T21:09:40.787Z,11.80
2022-10-03T21:12:18.895Z,11.80
2022-10-03T21:14:51.299Z,11.70
2022-10-03T21:17:19.789Z,11.70
2022-10-03T21:19:51.941Z,11.60
2022-10-03T21:22:23.287Z,11.60
2022-10-03T21:25:03.308Z,11.60
2022-10-03T21:27:32.151Z,11.50
2022-10-03T21:30:15.866Z,11.50
2022-10-03T21:32:58.485Z,11.50
2022-10-03T21:35:28.173Z,11.50
2022-10-03T21:38:09.834Z,11.40
2022-10-03T21:40:47.007Z,11.40
2022-10-03T21:43:25.889Z,11.30
2022-10-03T21:45:58.375Z,11.30
2022-10-03T21:48:32.091Z,11.30
2022-10-03T21:51:01.569Z,11.30
2022-10-03T21:53:40.611Z,11.20
2022-10-03T21:56:20.401Z,11.20
2022-10-03T21:58:58.865Z,11.10
2022-10-03T22:01:31.321Z,11.10
2022-10-03T22:04:17.022Z,11.00
2022-10-03T22:07:00.862Z,11.00
2022-10-03T22:09:28.126Z,11.00
2022-10-03T22:11:59.588Z,10.90
2022-10-03T22:14:49.084Z,10.90
2022-10-03T22:17:57.946Z,10.90
2022-10-03T22:20:28.273Z,10.80
2022-10-03T22:22:57.741Z,10.80
2022-10-03T22:25:59.918Z,10.80
2022-10-03T22:28:31.465Z,10.80
2022-10-03T22:31:14.986Z,10.80
2022-10-03T22:33:56.615Z,10.70
2022-10-03T22:36:24.071Z,10.70
2022-10-03T22:38:52.546Z,10.70
2022-10-03T22:41:27.105Z,10.70
2022-10-03T22:43:57.131Z,10.70
2022-10-03T22:46:27.435Z,10.70
2022-10-03T22:49:19.613Z,10.70
2022-10-03T22:51:47.787Z,10.70
2022-10-03T22:54:17.481Z,10.70
2022-10-03T22:56:57.675Z,10.70
2022-10-03T22:59:31.265Z,10.70
2022-10-03T23:02:02.546Z,10.70
2022-10-03T23:04:54.330Z,10.70
2022-10-03T23:07:26.923Z,10.70
2022-10-03T23:10:16.817Z,10.70
2022-10-03T23:12:54.306Z,10.70
2022-10-03T23:15:22.939Z,10.80
2022-10-03T23:17:59.419Z,10.70
2022-10-03T23:21:01.609Z,10.70
2022-10-03T23:23:41.482Z,10.70
2022-10-03T23:26:26.288Z,10.70
2022-10-03T23:29:05.216Z,10.70
2022-10-03T23:31:54.905Z,10.60
2022-10-03T23:34:37.220Z,10.60
2022-10-03T23:37:15.596Z,10.50
2022-10-03T23:39:57.229Z,10.50
2022-10-03T23:42:30.858Z,10.40
2022-10-03T23:44:58.102Z,10.40
2022-10-03T23:47:33.982Z,10.40
2022-10-03T23:50:04.345Z,10.30
2022-10-03T23:52:41.321Z,10.30
2022-10-03T23:55:09.109Z,10.20
2022-10-03T23:57:40.463Z,10.20
